Time;durP1;ratioP1;P1;durP2;ratioP2;P2;SDS_P1;SDS_P2;PMS_P1;PMS_P2;Temp;Humidity;BMP_temperature;BMP_pressure;BME280_temperature;BME280_humidity;BME280_pressure;Samples;Min_cycle;Max_cycle;Signal;HPM_P1;HPM_P2
2023/08/26 00:00:23;;;;;;;17.35;12.20;;;;;;;24.14;88.59;65536.81;5050827;28;20627;-53
2023/08/26 00:02:48;;;;;;;16.67;11.85;;;;;;;24.15;87.59;65538.47;5050705;28;20220;-53
2023/08/26 00:05:14;;;;;;;15.77;10.52;;;;;;;24.17;86.07;65543.28;5050808;28;20216;-53
2023/08/26 00:07:39;;;;;;;14.30;10.60;;;;;;;24.00;85.87;65521.81;5050655;28;20217;-53
2023/08/26 00:10:05;;;;;;;15.43;10.50;;;;;;;24.09;85.71;65534.41;5032893;28;20202;-56
2023/08/26 00:12:31;;;;;;;12.10;9.60;;;;;;;24.00;85.64;65521.25;5050807;28;20212;-52
2023/08/26 00:14:56;;;;;;;14.05;10.35;;;;;;;23.94;85.46;65519.75;5050675;28;20280;-54
2023/08/26 00:17:21;;;;;;;11.27;9.27;;;;;;;23.96;84.35;65519.97;5050448;28;20706;-52
2023/08/26 00:19:47;;;;;;;14.20;10.18;;;;;;;23.79;86.04;65501.13;5050557;28;20201;-57
2023/08/26 00:22:12;;;;;;;12.38;9.70;;;;;;;23.80;85.65;65502.22;5050875;28;20619;-50
2023/08/26 00:24:37;;;;;;;12.30;9.40;;;;;;;23.84;85.16;65506.09;5050545;28;20296;-52
2023/08/26 00:27:03;;;;;;;11.80;8.85;;;;;;;23.83;85.64;65507.56;5032390;28;20213;-53
2023/08/26 00:29:29;;;;;;;12.88;9.55;;;;;;;23.70;86.44;65488.00;5050393;28;20702;-51
2023/08/26 00:31:55;;;;;;;11.00;9.30;;;;;;;23.57;87.68;65476.19;5050324;28;20316;-51
2023/08/26 00:34:20;;;;;;;10.65;9.50;;;;;;;23.53;87.47;65471.75;5050433;28;20232;-52
2023/08/26 00:36:46;;;;;;;13.90;9.65;;;;;;;23.37;88.53;65454.03;5050066;28;20312;-53
2023/08/26 00:39:11;;;;;;;13.55;9.45;;;;;;;23.23;90.39;65439.59;5050299;28;20255;-53
2023/08/26 00:41:36;;;;;;;10.02;9.02;;;;;;;23.12;90.86;65427.41;5050485;28;20201;-53
2023/08/26 00:44:02;;;;;;;10.55;8.98;;;;;;;23.16;90.89;65431.84;5049290;28;20872;-53
2023/08/26 00:46:29;;;;;;;10.38;9.32;;;;;;;23.00;92.84;65414.13;5049395;28;20220;-51
2023/08/26 00:48:54;;;;;;;12.15;10.85;;;;;;;23.04;92.71;65418.56;5049246;28;20185;-52
2023/08/26 00:51:21;;;;;;;11.48;9.27;;;;;;;23.05;91.51;65419.66;5030817;28;20680;-53
2023/08/26 00:53:48;;;;;;;12.45;9.43;;;;;;;23.13;92.07;65427.94;5050039;28;20201;-53
2023/08/26 00:56:14;;;;;;;12.05;9.23;;;;;;;23.06;92.77;65417.63;5050011;28;20209;-53
2023/08/26 00:58:40;;;;;;;10.95;9.32;;;;;;;22.93;93.97;65408.38;5032072;28;20285;-53
2023/08/26 01:01:06;;;;;;;12.40;10.18;;;;;;;22.94;93.81;65410.06;5049767;28;20209;-53
2023/08/26 01:03:31;;;;;;;13.07;9.88;;;;;;;23.02;93.37;65415.78;5049890;28;20303;-65
2023/08/26 01:05:57;;;;;;;12.45;9.45;;;;;;;22.99;93.57;65415.56;5049923;28;20221;-53
2023/08/26 01:08:23;;;;;;;12.68;10.43;;;;;;;22.90;93.90;65403.06;5034171;28;20301;-53
2023/08/26 01:11:15;;;;;;;11.90;10.05;;;;;;;22.88;94.21;65403.41;5053664;28;20656;-52
2023/08/26 01:13:49;;;;;;;11.88;9.60;;;;;;;23.03;92.85;65420.00;5053536;28;20671;-55
2023/08/26 01:16:15;;;;;;;12.05;9.43;;;;;;;22.98;93.64;65411.34;5053499;28;20291;-54
2023/08/26 01:18:42;;;;;;;10.95;9.60;;;;;;;22.87;94.18;65399.72;5053478;28;20658;-53
2023/08/26 01:21:12;;;;;;;10.90;9.63;;;;;;;22.71;95.71;65381.44;5053323;28;20321;-53
2023/08/26 01:23:44;;;;;;;12.93;10.45;;;;;;;22.74;95.72;65385.34;5053311;28;20198;-53
2023/08/26 01:26:10;;;;;;;12.38;9.68;;;;;;;22.72;96.02;65380.53;5053366;28;20217;-52
2023/08/26 01:28:36;;;;;;;14.27;10.13;;;;;;;22.80;95.60;65389.41;5053293;28;20587;-52
2023/08/26 01:31:09;;;;;;;12.20;10.00;;;;;;;22.77;95.94;65391.22;5053444;28;20209;-53
2023/08/26 01:33:57;;;;;;;11.57;10.05;;;;;;;22.90;95.00;65403.06;5053213;28;20698;-55
2023/08/26 01:36:26;;;;;;;13.43;9.20;;;;;;;22.92;94.92;65407.84;5053428;28;20217;-54
2023/08/26 01:38:55;;;;;;;13.52;11.02;;;;;;;22.98;94.45;65409.34;5053075;28;20205;-52
2023/08/26 01:41:21;;;;;;;13.98;10.07;;;;;;;23.03;94.34;65414.88;5053319;28;20213;-57
2023/08/26 01:43:47;;;;;;;10.85;9.73;;;;;;;23.08;93.84;65425.00;5053119;28;20239;-52
2023/08/26 01:46:16;;;;;;;14.70;10.27;;;;;;;22.93;94.65;65406.38;5052761;28;20270;-53
2023/08/26 01:48:41;;;;;;;16.08;9.90;;;;;;;22.75;95.87;65386.44;5052765;28;20205;-54
2023/08/26 01:51:07;;;;;;;13.85;10.73;;;;;;;22.85;96.24;65399.50;5053110;28;20300;-53
2023/08/26 01:53:33;;;;;;;11.55;9.60;;;;;;;22.95;94.83;65411.16;5052912;28;20210;-53
2023/08/26 01:55:58;;;;;;;13.35;10.07;;;;;;;22.96;94.66;65407.13;5034941;28;20676;-54
2023/08/26 01:58:24;;;;;;;10.57;9.48;;;;;;;23.01;95.16;65412.66;5034901;28;20194;-54
2023/08/26 02:00:50;;;;;;;15.35;9.95;;;;;;;22.96;94.82;65409.69;5052800;28;20236;-53
2023/08/26 02:03:16;;;;;;;15.10;10.75;;;;;;;23.00;94.63;65411.00;5052792;28;20170;-52
2023/08/26 02:05:41;;;;;;;12.25;9.18;;;;;;;23.00;94.46;65414.13;5052841;28;20229;-55
2023/08/26 02:08:07;;;;;;;15.45;10.18;;;;;;;22.99;95.43;65415.56;5035109;28;20292;-55
2023/08/26 02:10:32;;;;;;;14.77;10.52;;;;;;;22.88;94.69;65400.84;5052748;28;20208;-54
2023/08/26 02:12:57;;;;;;;10.20;9.20;;;;;;;23.02;94.37;65418.34;5052425;28;20213;-54
2023/08/26 02:15:34;;;;;;;13.45;9.27;;;;;;;23.13;93.60;65428.50;5052519;28;20209;-55
2023/08/26 02:18:00;;;;;;;12.63;9.55;;;;;;;23.12;93.32;65426.84;5052487;28;20317;-63
2023/08/26 02:20:25;;;;;;;12.15;10.27;;;;;;;23.09;92.87;65423.53;5051133;28;20224;-56
2023/08/26 02:22:51;;;;;;;12.68;10.32;;;;;;;23.05;93.49;65422.22;5052436;28;20629;-54
2023/08/26 02:25:16;;;;;;;13.80;10.13;;;;;;;23.02;94.19;65413.22;5052722;28;20221;-55
2023/08/26 02:27:41;;;;;;;11.00;9.82;;;;;;;23.01;93.62;65415.22;5052298;28;20205;-54
2023/08/26 02:30:08;;;;;;;12.50;9.95;;;;;;;22.80;95.07;65391.97;5052039;28;20208;-53
2023/08/26 02:32:34;;;;;;;13.10;10.50;;;;;;;22.76;95.31;65390.13;5052269;28;20209;-54
2023/08/26 02:34:59;;;;;;;12.32;10.77;;;;;;;22.94;94.22;65404.91;5052181;28;20198;-58
2023/08/26 02:37:25;;;;;;;11.30;10.20;;;;;;;22.77;95.74;65391.22;5052125;28;20293;-54
2023/08/26 02:39:50;;;;;;;11.25;10.10;;;;;;;22.79;95.96;65390.28;5034144;28;20270;-55
2023/08/26 02:42:16;;;;;;;14.48;10.95;;;;;;;22.79;96.16;65390.28;5052254;28;20217;-55
2023/08/26 02:44:41;;;;;;;13.73;10.32;;;;;;;22.80;96.19;65388.84;5034089;28;20209;-55
2023/08/26 02:47:06;;;;;;;16.33;10.98;;;;;;;22.77;96.39;65388.09;5052214;28;20260;-54
2023/08/26 02:49:32;;;;;;;12.77;9.98;;;;;;;22.88;95.97;65397.69;5052021;28;20575;-54
2023/08/26 02:51:57;;;;;;;13.77;10.25;;;;;;;22.91;95.46;65406.72;5052069;28;20225;-55
2023/08/26 02:54:24;;;;;;;11.65;10.40;;;;;;;22.95;95.29;65406.00;5051953;28;20216;-55
2023/08/26 02:56:50;;;;;;;15.02;10.00;;;;;;;22.85;95.22;65397.50;5051735;28;20217;-54
2023/08/26 02:59:15;;;;;;;12.25;10.45;;;;;;;22.77;95.88;65385.50;5051846;28;20558;-55
2023/08/26 03:01:41;;;;;;;10.85;9.75;;;;;;;22.71;96.74;65381.44;5051841;28;20252;-56
2023/08/26 03:04:06;;;;;;;11.73;9.95;;;;;;;22.70;96.64;65380.34;5051728;28;20221;-54
2023/08/26 03:06:31;;;;;;;12.10;10.55;;;;;;;22.40;98.90;65347.66;5051536;28;20217;-54
2023/08/26 03:08:57;;;;;;;11.95;10.70;;;;;;;22.45;98.89;65353.75;5051769;28;20667;-54
2023/08/26 03:11:22;;;;;;;12.48;11.10;;;;;;;22.58;97.94;65367.63;5051864;28;20266;-55
2023/08/26 03:13:49;;;;;;;13.30;10.40;;;;;;;22.65;96.89;65374.78;5033776;28;20594;-55
2023/08/26 03:16:15;;;;;;;13.88;9.70;;;;;;;22.60;97.27;65367.25;5033672;28;20237;-55
2023/08/26 03:18:40;;;;;;;14.75;10.85;;;;;;;22.58;97.67;65367.06;5051445;28;20291;-54
2023/08/26 03:21:07;;;;;;;12.73;11.43;;;;;;;22.57;97.44;65369.03;5051836;28;20274;-54
2023/08/26 03:23:37;;;;;;;11.43;10.10;;;;;;;22.43;98.85;65351.53;5051695;28;20201;-54
2023/08/26 03:26:06;;;;;;;12.70;11.40;;;;;;;22.53;97.52;65359.47;5051360;28;20209;-55
2023/08/26 03:28:31;;;;;;;13.77;10.15;;;;;;;22.44;97.64;65352.63;5051503;28;20723;-54
2023/08/26 03:31:05;;;;;;;11.45;9.98;;;;;;;22.52;97.85;65358.38;5050911;28;20281;-54
2023/08/26 03:33:30;;;;;;;13.27;11.43;;;;;;;22.54;96.60;65361.13;5051481;28;20197;-54
2023/08/26 03:35:56;;;;;;;12.65;10.05;;;;;;;22.49;96.48;65355.06;5051040;28;20679;-54
2023/08/26 03:38:22;;;;;;;14.25;11.25;;;;;;;22.39;97.84;65347.09;5051159;28;20201;-54
2023/08/26 03:40:47;;;;;;;14.20;11.00;;;;;;;22.60;96.70;65369.81;5051329;28;20241;-56
2023/08/26 03:43:12;;;;;;;12.27;10.35;;;;;;;22.66;96.36;65379.03;5016976;28;20296;-54
2023/08/26 03:45:39;;;;;;;13.15;10.07;;;;;;;22.85;95.45;65400.06;5050961;28;20691;-54
2023/08/26 03:48:04;;;;;;;12.68;11.00;;;;;;;22.79;94.59;65390.28;5050939;28;20209;-54
2023/08/26 03:50:30;;;;;;;13.82;11.15;;;;;;;22.13;99.71;65318.31;5051046;28;20295;-55
2023/08/26 03:52:55;;;;;;;14.98;11.68;;;;;;;21.97;100.00;65300.06;5051004;28;20587;-54
2023/08/26 03:55:21;;;;;;;13.82;11.13;;;;;;;22.01;100.00;65304.50;5050937;28;20240;-54
2023/08/26 03:57:46;;;;;;;15.73;12.27;;;;;;;22.20;99.88;65326.06;5050881;28;20598;-54
2023/08/26 04:00:12;;;;;;;16.65;11.57;;;;;;;22.31;99.34;65337.69;5032860;28;20193;-55
2023/08/26 04:02:38;;;;;;;14.38;11.38;;;;;;;22.40;98.89;65348.19;5051065;28;20221;-54
2023/08/26 04:05:04;;;;;;;15.40;12.20;;;;;;;22.25;100.00;65331.59;5050833;28;20220;-54
2023/08/26 04:07:30;;;;;;;15.93;12.38;;;;;;;22.06;100.00;65310.03;5050677;28;20575;-54
2023/08/26 04:09:55;;;;;;;14.27;11.77;;;;;;;22.32;100.00;65336.25;5050825;28;20220;-54
2023/08/26 04:12:20;;;;;;;17.05;11.70;;;;;;;22.45;100.00;65356.31;5050550;28;20592;-54
2023/08/26 04:14:46;;;;;;;15.05;11.88;;;;;;;22.66;98.25;65373.91;5050834;28;20202;-54
2023/08/26 04:17:12;;;;;;;15.10;12.07;;;;;;;22.65;98.83;65374.78;5050695;28;20210;-55
2023/08/26 04:19:37;;;;;;;15.55;11.85;;;;;;;22.74;97.95;65382.19;5050933;28;20273;-54
2023/08/26 04:22:04;;;;;;;15.38;11.57;;;;;;;22.58;96.31;65367.06;5050581;28;20625;-55
2023/08/26 04:24:31;;;;;;;16.30;11.35;;;;;;;22.37;98.64;65344.34;5050469;28;20710;-54
2023/08/26 04:26:57;;;;;;;13.15;10.45;;;;;;;22.25;97.52;65331.06;5050930;28;20222;-54
2023/08/26 04:29:22;;;;;;;12.98;10.63;;;;;;;22.20;98.20;65323.50;5032439;28;20203;-55
2023/08/26 04:31:47;;;;;;;12.10;10.45;;;;;;;22.34;98.15;65341.03;5050706;28;20202;-54
2023/08/26 04:34:13;;;;;;;12.18;10.30;;;;;;;22.46;95.75;65354.84;5050398;28;20272;-55
2023/08/26 04:36:39;;;;;;;13.10;9.82;;;;;;;22.38;95.95;65342.88;5050629;28;20205;-55
2023/08/26 04:39:10;;;;;;;13.13;10.10;;;;;;;22.41;95.47;65348.75;5050455;28;20201;-55
2023/08/26 04:41:40;;;;;;;11.27;9.82;;;;;;;22.41;95.19;65346.75;5049853;28;20225;-55
2023/08/26 04:44:06;;;;;;;13.38;9.65;;;;;;;22.52;94.42;65358.91;5049979;28;20672;-55
2023/08/26 04:46:32;;;;;;;10.40;9.18;;;;;;;22.60;93.34;65371.84;5050059;28;20241;-55
2023/08/26 04:48:57;;;;;;;13.55;9.43;;;;;;;22.66;92.64;65376.47;5032201;28;20618;-54
2023/08/26 04:51:23;;;;;;;12.77;9.50;;;;;;;22.77;91.81;65388.09;5050311;28;20269;-55
2023/08/26 04:53:54;;;;;;;10.32;9.20;;;;;;;22.94;91.37;65404.91;5050278;28;21147;-55
2023/08/26 04:56:20;;;;;;;11.35;8.80;;;;;;;22.88;90.96;65400.84;5050198;28;20217;-54
2023/08/26 04:58:46;;;;;;;11.60;9.30;;;;;;;22.94;89.54;65404.34;5050013;28;20212;-55
2023/08/26 05:01:12;;;;;;;11.18;9.05;;;;;;;22.97;90.74;65408.22;5050310;28;20225;-54
2023/08/26 05:03:38;;;;;;;10.52;9.38;;;;;;;23.04;88.98;65418.56;5050083;28;20556;-58
2023/08/26 05:06:03;;;;;;;17.33;11.20;;;;;;;23.20;96.07;65433.72;5049962;28;20228;-55
2023/08/26 05:08:29;;;;;;;12.68;10.63;;;;;;;23.41;93.14;65455.88;5049977;28;20197;-54
2023/08/26 05:10:54;;;;;;;13.60;12.18;;;;;;;23.52;96.86;65468.06;5049811;28;20613;-53
2023/08/26 05:13:20;;;;;;;12.50;10.77;;;;;;;23.63;91.81;65483.41;5049862;28;20197;-54
2023/08/26 05:15:46;;;;;;;26.38;14.43;;;;;;;23.80;86.91;65502.22;5049893;28;20213;-54
2023/08/26 05:18:12;;;;;;;31.17;19.67;;;;;;;23.82;86.55;65503.88;5049823;28;20197;-54
2023/08/26 05:20:37;;;;;;;10.38;9.05;;;;;;;23.77;84.83;65500.94;5049951;28;20202;-53
2023/08/26 05:23:02;;;;;;;10.77;8.77;;;;;;;23.63;85.63;65477.69;5049831;28;20568;-56
2023/08/26 05:25:28;;;;;;;24.08;17.40;;;;;;;23.46;88.04;65461.41;5049746;28;20218;-54
2023/08/26 05:27:53;;;;;;;11.40;8.88;;;;;;;23.33;87.17;65448.13;5049498;28;20271;-54
2023/08/26 05:30:20;;;;;;;11.45;9.98;;;;;;;23.30;89.60;65447.34;5031585;28;20251;-53
2023/08/26 05:32:45;;;;;;;21.75;13.88;;;;;;;23.39;90.66;65454.22;5049814;28;20297;-54
2023/08/26 05:35:11;;;;;;;12.93;9.82;;;;;;;23.58;87.36;65474.72;5049603;28;20276;-55
2023/08/26 05:37:37;;;;;;;11.38;9.35;;;;;;;23.62;85.77;65481.72;5049415;28;20292;-54
2023/08/26 05:40:03;;;;;;;10.18;8.50;;;;;;;23.58;86.72;65474.72;5049494;28;20206;-55
2023/08/26 05:42:29;;;;;;;13.95;9.50;;;;;;;23.61;86.92;65481.19;5049346;28;20209;-53
2023/08/26 05:44:55;;;;;;;10.85;9.32;;;;;;;23.59;87.79;65476.38;5049302;28;20224;-55
2023/08/26 05:47:20;;;;;;;15.48;9.85;;;;;;;23.94;87.08;65515.16;5049529;28;20676;-53
2023/08/26 05:49:46;;;;;;;15.40;10.68;;;;;;;24.25;85.87;65549.00;5049435;28;20185;-56
2023/08/26 05:52:11;;;;;;;11.10;8.93;;;;;;;24.51;85.53;65577.84;5049413;28;20233;-61
2023/08/26 05:54:36;;;;;;;14.95;10.95;;;;;;;24.69;84.64;65597.81;5051854;28;20193;-54
2023/08/26 05:57:02;;;;;;;13.07;10.93;;;;;;;24.84;83.79;65617.06;5052689;28;20629;-54
2023/08/26 05:59:28;;;;;;;15.18;11.05;;;;;;;24.92;83.07;65623.34;5052598;28;20201;-58
2023/08/26 06:01:53;;;;;;;11.95;10.32;;;;;;;24.97;82.78;65628.34;5052763;28;20593;-54
2023/08/26 06:04:19;;;;;;;15.82;11.88;;;;;;;25.10;81.62;65644.78;5034733;28;20297;-56
2023/08/26 06:06:44;;;;;;;15.77;10.95;;;;;;;25.12;80.57;65644.44;5052592;28;20695;-56
2023/08/26 06:09:09;;;;;;;14.73;11.50;;;;;;;24.99;81.33;65631.09;5034813;28;20311;-55
2023/08/26 06:11:35;;;;;;;13.00;10.73;;;;;;;25.07;81.06;65639.44;5052662;28;20696;-55
2023/08/26 06:14:00;;;;;;;13.18;10.18;;;;;;;25.19;80.57;65652.19;5052492;28;20208;-59
2023/08/26 06:16:26;;;;;;;14.48;11.27;;;;;;;25.18;78.94;65649.06;5052421;28;20295;-57
2023/08/26 06:18:52;;;;;;;14.35;10.32;;;;;;;25.06;79.62;65640.34;5052498;28;20204;-54
2023/08/26 06:21:17;;;;;;;19.50;10.57;;;;;;;25.02;79.81;65633.31;5052440;28;20214;-58
2023/08/26 06:23:43;;;;;;;11.88;9.93;;;;;;;25.08;79.69;65637.41;5052424;28;20204;-55
2023/08/26 06:26:08;;;;;;;15.65;10.23;;;;;;;25.26;78.58;65659.97;5052532;28;20213;-55
2023/08/26 06:28:34;;;;;;;14.15;10.32;;;;;;;25.37;77.83;65672.72;5079893;22;20306;-54
2023/08/26 06:31:01;;;;;;;16.02;11.63;;;;;;;25.47;77.55;65683.84;5072147;28;20196;-58
2023/08/26 06:33:26;;;;;;;12.05;10.43;;;;;;;25.46;78.37;65682.19;5072268;28;20632;-54
2023/08/26 06:35:52;;;;;;;15.32;11.00;;;;;;;25.44;77.70;65680.53;5054238;28;20262;-54
2023/08/26 06:38:19;;;;;;;11.90;10.55;;;;;;;25.45;77.36;65683.66;5072600;28;20185;-54
2023/08/26 06:40:54;;;;;;;14.70;10.23;;;;;;;25.51;76.25;65688.28;5072190;28;20641;-54
2023/08/26 06:43:20;;;;;;;12.55;10.02;;;;;;;25.59;75.18;65696.63;5072364;28;20258;-54
2023/08/26 06:45:45;;;;;;;13.27;9.98;;;;;;;25.49;76.41;65688.09;5071787;28;20221;-56
2023/08/26 06:48:10;;;;;;;13.27;9.32;;;;;;;25.50;76.48;65689.19;5054119;28;20231;-54
2023/08/26 06:50:36;;;;;;;15.15;9.48;;;;;;;25.62;77.13;65699.94;5072027;28;20698;-54
2023/08/26 06:53:02;;;;;;;18.55;11.05;;;;;;;25.82;78.02;65724.19;5072015;28;20286;-54
2023/08/26 06:55:28;;;;;;;16.38;10.15;;;;;;;25.95;76.02;65736.03;5071957;28;20224;-56
2023/08/26 06:57:53;;;;;;;12.07;9.65;;;;;;;25.93;77.34;65733.81;5071840;28;20779;-55
2023/08/26 07:00:18;;;;;;;14.75;9.38;;;;;;;25.69;74.44;65708.25;5071889;28;20204;-56
2023/08/26 07:02:44;;;;;;;11.32;9.00;;;;;;;25.60;75.40;65695.13;5071944;28;20744;-54
2023/08/26 07:05:09;;;;;;;10.52;8.93;;;;;;;25.72;74.92;65711.59;5052895;28;20223;-55
2023/08/26 07:07:36;;;;;;;16.15;9.52;;;;;;;25.68;75.40;65706.59;5071936;28;20231;-57
2023/08/26 07:10:02;;;;;;;11.70;8.77;;;;;;;25.65;75.96;65703.28;5071584;28;20197;-61
2023/08/26 07:12:28;;;;;;;11.75;8.88;;;;;;;25.58;74.12;65698.09;5071594;28;20234;-55
2023/08/26 07:14:54;;;;;;;9.88;8.65;;;;;;;25.74;74.75;65713.81;5071574;28;20223;-57
2023/08/26 07:17:19;;;;;;;13.43;9.65;;;;;;;25.91;74.95;65732.16;5071315;28;20200;-56
2023/08/26 07:19:46;;;;;;;14.90;10.90;;;;;;;26.19;77.10;65762.69;5071527;28;20231;-58
2023/08/26 07:22:11;;;;;;;18.00;12.57;;;;;;;26.44;78.38;65788.44;5071646;28;20213;-55
2023/08/26 07:24:37;;;;;;;15.93;9.55;;;;;;;26.61;76.45;65806.78;5071602;28;20591;-57
2023/08/26 07:27:03;;;;;;;10.27;8.85;;;;;;;26.91;66.88;65842.72;5071675;28;20662;-56
2023/08/26 07:29:35;;;;;;;9.38;7.90;;;;;;;27.14;64.86;65868.28;5053730;28;20224;-55
2023/08/26 07:32:01;;;;;;;15.13;8.68;;;;;;;27.11;68.35;65861.81;5053253;28;20216;-55
2023/08/26 07:34:26;;;;;;;11.55;8.35;;;;;;;27.14;67.00;65867.72;5071197;28;20358;-54
2023/08/26 07:36:52;;;;;;;16.40;12.38;;;;;;;27.18;69.48;65869.59;5053191;28;20204;-55
2023/08/26 07:39:18;;;;;;;11.27;9.60;;;;;;;27.32;72.55;65888.31;5071361;28;20212;-54
2023/08/26 07:41:44;;;;;;;15.40;9.05;;;;;;;27.62;64.90;65920.56;5071211;28;20382;-55
2023/08/26 07:44:09;;;;;;;10.63;8.65;;;;;;;27.68;65.35;65927.78;5071291;28;20683;-55
2023/08/26 07:46:35;;;;;;;18.95;13.57;;;;;;;27.45;63.90;65902.22;5053293;28;20219;-54
2023/08/26 07:49:00;;;;;;;13.98;9.05;;;;;;;27.62;63.11;65918.53;5071217;28;20224;-55
2023/08/26 07:51:26;;;;;;;13.80;9.00;;;;;;;27.80;63.48;65941.13;5070933;28;20209;-54
2023/08/26 07:53:51;;;;;;;11.68;9.10;;;;;;;28.09;62.15;65970.84;5071112;28;20197;-54
2023/08/26 07:56:16;;;;;;;12.85;8.85;;;;;;;28.20;61.43;65985.66;5053133;28;20212;-53
2023/08/26 07:58:42;;;;;;;10.95;7.55;;;;;;;28.17;60.62;65981.78;5070903;28;20682;-56
2023/08/26 08:01:07;;;;;;;14.40;9.68;;;;;;;28.28;59.88;65993.47;5070660;28;20196;-55
2023/08/26 08:03:34;;;;;;;12.05;8.75;;;;;;;28.54;58.00;66022.94;5070804;28;20196;-54
2023/08/26 08:06:00;;;;;;;28.60;19.33;;;;;;;28.47;60.27;66012.00;5052342;28;20717;-53
2023/08/26 08:08:25;;;;;;;10.23;8.32;;;;;;;28.67;57.28;66034.84;5052686;28;20177;-53
2023/08/26 08:10:51;;;;;;;24.73;19.00;;;;;;;28.74;58.00;66042.06;5070781;28;20200;-54
2023/08/26 08:13:16;;;;;;;14.05;9.40;;;;;;;28.70;59.72;66035.03;5070791;28;20647;-54
2023/08/26 08:15:42;;;;;;;10.05;7.90;;;;;;;28.98;57.53;66071.94;5070746;28;20200;-53
2023/08/26 08:18:08;;;;;;;13.48;8.82;;;;;;;29.25;56.04;66100.91;5069473;28;20322;-54
2023/08/26 08:20:34;;;;;;;14.23;8.57;;;;;;;29.38;55.23;66110.75;5052615;28;20552;-53
2023/08/26 08:23:00;;;;;;;13.15;8.07;;;;;;;29.27;55.32;66101.09;5070654;28;20213;-53
2023/08/26 08:25:25;;;;;;;9.73;8.20;;;;;;;29.34;55.73;66108.34;5070233;28;20220;-54
2023/08/26 08:27:51;;;;;;;10.80;8.20;;;;;;;29.79;54.85;66161.09;5070456;28;20204;-54
2023/08/26 08:30:17;;;;;;;9.82;8.82;;;;;;;29.88;52.39;66167.97;5070311;28;20215;-53
2023/08/26 08:32:42;;;;;;;9.18;7.53;;;;;;;29.74;51.63;66153.47;5070138;28;20314;-53
2023/08/26 08:35:08;;;;;;;8.63;7.88;;;;;;;29.75;52.56;66157.19;5070329;28;20283;-53
2023/08/26 08:37:34;;;;;;;9.98;7.70;;;;;;;29.82;51.12;66161.81;5070536;28;20230;-53
2023/08/26 08:40:00;;;;;;;10.65;8.82;;;;;;;29.71;52.33;66147.53;5070263;28;20224;-53
2023/08/26 08:42:26;;;;;;;11.57;9.63;;;;;;;29.75;53.10;66157.19;5052282;28;20567;-53
2023/08/26 08:44:55;;;;;;;9.38;7.85;;;;;;;30.10;53.13;66192.47;5069991;28;20678;-52
2023/08/26 08:47:21;;;;;;;10.82;8.23;;;;;;;30.36;50.45;66221.47;5070017;28;20243;-53
2023/08/26 08:49:48;;;;;;;8.90;7.45;;;;;;;30.45;50.48;66234.66;5070142;28;20204;-54
2023/08/26 08:52:17;;;;;;;9.45;7.97;;;;;;;30.27;49.47;66211.97;5070160;28;20222;-53
2023/08/26 08:54:44;;;;;;;9.50;8.57;;;;;;;30.02;50.47;66184.09;5070048;28;20258;-53
2023/08/26 08:57:13;;;;;;;8.45;7.63;;;;;;;30.26;51.98;66212.91;5070171;28;20211;-52
2023/08/26 08:59:39;;;;;;;8.32;7.57;;;;;;;30.71;49.83;66259.91;5052249;28;20215;-53
2023/08/26 09:02:08;;;;;;;9.82;8.40;;;;;;;30.85;50.18;66273.50;5069756;28;20269;-53
2023/08/26 09:04:34;;;;;;;18.45;14.93;;;;;;;30.52;50.06;66242.44;5069936;28;20181;-54
2023/08/26 09:07:02;;;;;;;9.45;8.50;;;;;;;30.89;48.53;66277.97;5070202;28;20225;-53
2023/08/26 09:09:27;;;;;;;15.43;10.48;;;;;;;31.11;48.94;66304.56;5070055;28;20667;-54
2023/08/26 09:11:53;;;;;;;11.43;8.43;;;;;;;31.51;47.66;66349.19;5069985;28;20208;-52
2023/08/26 09:14:18;;;;;;;8.27;7.43;;;;;;;31.75;46.77;66375.41;5069841;28;20706;-53
2023/08/26 09:16:44;;;;;;;8.40;6.97;;;;;;;31.94;45.95;66397.19;5069868;28;20733;-53
2023/08/26 09:19:13;;;;;;;11.07;7.95;;;;;;;32.12;46.53;66417.28;5069768;28;20195;-54
2023/08/26 09:21:48;;;;;;;18.58;16.02;;;;;;;31.61;45.66;66360.34;5069803;28;20235;-54
2023/08/26 09:24:14;;;;;;;11.70;9.85;;;;;;;32.05;44.95;66406.31;5069828;28;20193;-54
2023/08/26 09:26:47;;;;;;;9.75;8.13;;;;;;;32.43;45.25;66450.78;5069714;28;20221;-56
2023/08/26 09:29:20;;;;;;;9.30;7.85;;;;;;;32.57;43.41;66466.41;5071522;28;20229;-54
2023/08/26 09:31:52;;;;;;;10.10;7.57;;;;;;;32.71;43.50;66479.44;5073165;28;20690;-54
2023/08/26 09:34:28;;;;;;;17.50;11.85;;;;;;;32.61;42.43;66470.88;5073076;28;20197;-53
2023/08/26 09:36:55;;;;;;;11.30;8.95;;;;;;;32.72;42.27;66481.13;5055224;28;20380;-54
2023/08/26 09:39:21;;;;;;;10.98;8.93;;;;;;;33.07;42.92;66521.75;5073122;28;20257;-54
2023/08/26 09:41:47;;;;;;;9.32;8.35;;;;;;;33.30;41.13;66545.38;5055019;28;20216;-59
2023/08/26 09:44:16;;;;;;;8.95;7.70;;;;;;;33.64;40.85;66585.44;5073246;28;20193;-54
2023/08/26 09:46:42;;;;;;;11.45;8.68;;;;;;;33.86;40.51;66607.41;5073334;28;20217;-54
2023/08/26 09:49:14;;;;;;;12.40;8.65;;;;;;;34.11;40.30;66637.44;5073222;28;20220;-55
2023/08/26 09:51:46;;;;;;;13.65;11.73;;;;;;;34.37;40.60;66664.44;5072967;28;20678;-56
2023/08/26 09:54:14;;;;;;;9.45;8.48;;;;;;;34.53;38.82;66682.38;5073272;28;20256;-54
2023/08/26 09:56:40;;;;;;;9.30;7.53;;;;;;;34.18;38.02;66645.81;5073112;28;20311;-53
2023/08/26 09:59:06;;;;;;;11.70;10.07;;;;;;;33.42;38.20;66560.84;5072975;28;20223;-54
2023/08/26 10:01:34;;;;;;;12.88;10.02;;;;;;;34.20;36.96;66647.50;5072996;28;20209;-53
2023/08/26 10:04:05;;;;;;;14.00;8.20;;;;;;;34.39;37.13;66668.75;5072684;28;20203;-54
2023/08/26 10:06:36;;;;;;;13.88;8.18;;;;;;;34.62;37.40;66692.41;5072799;28;20287;-54
2023/08/26 10:09:08;;;;;;;13.40;10.07;;;;;;;34.44;37.49;66672.28;5072794;28;20199;-54
2023/08/26 10:11:40;;;;;;;11.13;8.27;;;;;;;34.78;36.21;66715.00;5072931;28;20227;-57
2023/08/26 10:14:11;;;;;;;9.98;8.98;;;;;;;34.96;36.50;66726.72;5073084;28;20274;-58
2023/08/26 10:16:41;;;;;;;11.65;9.05;;;;;;;35.22;35.79;66758.44;5072918;28;20197;-56
2023/08/26 10:19:08;;;;;;;19.65;16.20;;;;;;;34.24;35.17;66652.53;5072880;28;20201;-55
2023/08/26 10:21:35;;;;;;;22.30;19.20;;;;;;;33.86;35.94;66610.03;5072659;28;20208;-56
2023/08/26 10:24:02;;;;;;;8.98;7.72;;;;;;;34.27;35.99;66652.72;5054612;28;20208;-54
2023/08/26 10:26:28;;;;;;;8.70;7.40;;;;;;;34.96;34.51;66726.72;5072485;28;20234;-53
2023/08/26 10:28:55;;;;;;;9.27;5.95;;;;;;;34.83;31.93;66717.44;5072439;28;20714;-54
2023/08/26 10:31:21;;;;;;;9.45;7.43;;;;;;;34.84;33.24;66715.91;5072466;28;20212;-54
2023/08/26 10:34:00;;;;;;;8.55;7.68;;;;;;;34.98;34.46;66731.59;5072218;28;20200;-53
2023/08/26 10:36:26;;;;;;;10.98;9.18;;;;;;;35.33;34.33;66773.38;5072309;28;20709;-55
2023/08/26 10:38:58;;;;;;;13.70;8.23;;;;;;;35.58;32.84;66798.19;5072390;28;20209;-54
2023/08/26 10:41:25;;;;;;;23.80;15.63;;;;;;;35.50;32.68;66791.84;5071107;28;20722;-53
2023/08/26 10:43:55;;;;;;;7.53;6.80;;;;;;;35.97;31.82;66841.88;5054699;28;20208;-53
2023/08/26 10:46:55;;;;;;;10.18;8.40;;;;;;;36.12;32.43;66858.69;5072223;28;20220;-52
2023/08/26 10:49:28;;;;;;;8.52;7.20;;;;;;;35.54;31.55;66793.72;5066297;28;20224;-54
2023/08/26 10:52:16;;;;;;;19.40;10.05;;;;;;;34.73;33.29;66706.22;5072282;28;20204;-54
2023/08/26 10:54:47;;;;;;;8.10;7.25;;;;;;;33.90;34.32;66614.50;5072073;28;20268;-53
2023/08/26 10:57:13;;;;;;;11.18;9.15;;;;;;;33.86;34.16;66610.59;5072280;28;20205;-53
2023/08/26 10:59:42;;;;;;;7.85;7.13;;;;;;;33.63;33.98;66584.31;5071953;28;20197;-51
2023/08/26 11:02:13;;;;;;;9.02;7.10;;;;;;;34.51;33.08;66682.75;5071779;28;20305;-52
2023/08/26 11:04:45;;;;;;;9.25;7.03;;;;;;;35.36;32.92;66774.13;5054558;28;20266;-52
2023/08/26 11:07:15;;;;;;;8.73;7.80;;;;;;;36.00;31.79;66848.41;5071991;28;20280;-54
2023/08/26 11:09:41;;;;;;;8.13;7.32;;;;;;;36.41;32.15;66890.59;5053727;28;20624;-53
2023/08/26 11:12:25;;;;;;;8.63;7.72;;;;;;;36.84;32.51;66938.78;5072005;28;20213;-53
2023/08/26 11:14:53;;;;;;;11.82;9.45;;;;;;;37.25;31.37;66984.72;5071839;28;20239;-53
2023/08/26 11:17:19;;;;;;;10.20;7.25;;;;;;;37.17;30.74;66975.22;5071378;28;20754;-53
2023/08/26 11:19:44;;;;;;;9.52;8.35;;;;;;;37.43;30.73;67007.00;5071847;28;20177;-52